Pilsen, Illinois
Current Conditions -  °F | °C
As of 1:53 PM on Thursday 18 Dec 2014 (Local Time) from KMDW Reporting Station
Overcast Overcast  
Wind Chill: 21°   Ceiling: 2300
Heat Index: 29°   Visibility: 10mi
Dew Point: 18°   Wind: 8mph
Humidity: 64%   Direction: 240°WSW
Pressure: 30.23"   Gusts: NA
Location:  41.8491°N, 87.6709°W
Report Text: KMDW 181953Z 24007KT 10SM OVC023 M02/M08 A3023 RMK AO2 SLP249 T10171078
Loading
Personal Weather Stations






























Interactive Weather Map New forecast layout! Learn more

10-Day Weather Forecast

Advertisements
Track Severe Weather on mobile